THY2BK LTFM-LTAC
Flight info
| Callsign | THY2BK |
|---|---|
| Flight time | 0h 51m |
| Altitude | 29000 |
| Route | VICEN1E/36 VICEN UT380 ASMAP UL333 LATGA |
| Aircraft | B77W/H-SDE1E2E3FGHIJ2J3J4J5M1RWXY/LB1D1 |
Departure
| Time | 2026-05-06 14:06 |
|---|---|
| Airport | İstanbul Airport (LTFM) |
Arrival
| Time | 2026-05-06 14:57 |
|---|---|
| Airport | Esenboğa International Airport (LTAC) |
| Time | Latitude | Longitude | Altitude | Speed | Heading |
|---|---|---|---|---|---|
| 2026-05-06 12:53 | 41.25725 | 28.74932 | 339 ft | 0 kts | 0° |
| 2026-05-06 13:53 | 41.25704 | 28.74932 | 339 ft | 4 kts | 359° |
| 2026-05-06 13:53 | 41.25677 | 28.74935 | 339 ft | 4 kts | 348° |
| 2026-05-06 13:54 | 41.25655 | 28.74944 | 339 ft | 4 kts | 322° |
| 2026-05-06 13:54 | 41.25646 | 28.74955 | 339 ft | 4 kts | 274° |
| 2026-05-06 13:54 | 41.25645 | 28.74985 | 335 ft | 4 kts | 271° |
| 2026-05-06 13:54 | 41.25643 | 28.75019 | 333 ft | 4 kts | 288° |
| 2026-05-06 13:55 | 41.25636 | 28.75040 | 339 ft | 4 kts | 329° |
| 2026-05-06 13:55 | 41.25623 | 28.75044 | 339 ft | 4 kts | 359° |
| 2026-05-06 13:55 | 41.25596 | 28.75044 | 339 ft | 4 kts | 359° |
| 2026-05-06 13:55 | 41.25571 | 28.75045 | 339 ft | 2 kts | 359° |
| 2026-05-06 13:56 | 41.25570 | 28.75045 | 339 ft | 0 kts | 359° |
| 2026-05-06 13:59 | 41.25578 | 28.75045 | 334 ft | 3 kts | 359° |
| 2026-05-06 13:59 | 41.25604 | 28.75045 | 339 ft | 4 kts | 1° |
| 2026-05-06 13:59 | 41.25632 | 28.75064 | 339 ft | 5 kts | 45° |
| 2026-05-06 13:59 | 41.25645 | 28.75120 | 339 ft | 8 kts | 83° |
| 2026-05-06 14:00 | 41.25648 | 28.75188 | 334 ft | 8 kts | 87° |
| 2026-05-06 14:00 | 41.25650 | 28.75274 | 337 ft | 10 kts | 89° |
| 2026-05-06 14:00 | 41.25651 | 28.75303 | 339 ft | 4 kts | 89° |
| 2026-05-06 14:00 | 41.25652 | 28.75351 | 335 ft | 6 kts | 85° |
| 2026-05-06 14:01 | 41.25672 | 28.75387 | 339 ft | 3 kts | 30° |
| 2026-05-06 14:01 | 41.25697 | 28.75396 | 339 ft | 5 kts | 8° |
| 2026-05-06 14:01 | 41.25742 | 28.75400 | 339 ft | 8 kts | 2° |
| 2026-05-06 14:01 | 41.25806 | 28.75401 | 339 ft | 10 kts | 359° |
| 2026-05-06 14:02 | 41.25888 | 28.75399 | 337 ft | 13 kts | 359° |
| 2026-05-06 14:02 | 41.25986 | 28.75397 | 334 ft | 15 kts | 359° |
| 2026-05-06 14:02 | 41.26091 | 28.75395 | 339 ft | 12 kts | 359° |
| 2026-05-06 14:02 | 41.26166 | 28.75393 | 339 ft | 9 kts | 359° |
| 2026-05-06 14:03 | 41.26218 | 28.75397 | 339 ft | 7 kts | 18° |
| 2026-05-06 14:03 | 41.26244 | 28.75451 | 339 ft | 7 kts | 79° |
| 2026-05-06 14:03 | 41.26247 | 28.75492 | 339 ft | 5 kts | 86° |
| 2026-05-06 14:03 | 41.26248 | 28.75521 | 336 ft | 4 kts | 87° |
| 2026-05-06 14:04 | 41.26249 | 28.75570 | 339 ft | 5 kts | 89° |
| 2026-05-06 14:04 | 41.26250 | 28.75601 | 339 ft | 3 kts | 89° |
| 2026-05-06 14:04 | 41.26259 | 28.75637 | 339 ft | 5 kts | 58° |
| 2026-05-06 14:04 | 41.26295 | 28.75663 | 335 ft | 7 kts | 9° |
| 2026-05-06 14:05 | 41.26354 | 28.75666 | 339 ft | 12 kts | 1° |
| 2026-05-06 14:05 | 41.26581 | 28.75663 | 338 ft | 63 kts | 359° |
| 2026-05-06 14:05 | 41.27317 | 28.75651 | 335 ft | 145 kts | 360° |
| 2026-05-06 14:05 | 41.28514 | 28.75664 | 638 ft | 180 kts | 1° |
| 2026-05-06 14:06 | 41.29741 | 28.75729 | 1579 ft | 176 kts | 16° |
| 2026-05-06 14:06 | 41.30797 | 28.76656 | 2099 ft | 198 kts | 57° |
| 2026-05-06 14:06 | 41.31501 | 28.78377 | 2319 ft | 228 kts | 54° |
| 2026-05-06 14:06 | 41.32833 | 28.79616 | 2854 ft | 242 kts | 19° |
| 2026-05-06 14:07 | 41.34458 | 28.80340 | 3559 ft | 250 kts | 20° |
| 2026-05-06 14:07 | 41.36070 | 28.81261 | 4442 ft | 255 kts | 25° |
| 2026-05-06 14:07 | 41.37565 | 28.82581 | 5141 ft | 264 kts | 49° |
| 2026-05-06 14:07 | 41.38358 | 28.84761 | 5983 ft | 271 kts | 81° |
| 2026-05-06 14:08 | 41.38444 | 28.87276 | 6797 ft | 275 kts | 89° |
| 2026-05-06 14:08 | 41.38421 | 28.89845 | 7641 ft | 278 kts | 95° |
| 2026-05-06 14:08 | 41.37787 | 28.92296 | 8409 ft | 287 kts | 124° |
| 2026-05-06 14:08 | 41.36324 | 28.94097 | 9289 ft | 291 kts | 152° |
| 2026-05-06 14:09 | 41.34380 | 28.94808 | 10131 ft | 292 kts | 177° |
| 2026-05-06 14:09 | 41.32304 | 28.94855 | 10623 ft | 310 kts | 180° |
| 2026-05-06 14:09 | 41.30825 | 28.94852 | 10762 ft | 331 kts | 180° |
| 2026-05-06 14:09 | 41.28423 | 28.94857 | 11025 ft | 358 kts | 180° |
| 2026-05-06 14:10 | 41.25882 | 28.94881 | 11767 ft | 370 kts | 180° |
| 2026-05-06 14:10 | 41.23276 | 28.94801 | 12712 ft | 379 kts | 184° |
| 2026-05-06 14:10 | 41.20625 | 28.94553 | 13743 ft | 385 kts | 185° |
| 2026-05-06 14:10 | 41.17939 | 28.94258 | 14768 ft | 390 kts | 185° |
| 2026-05-06 14:11 | 41.15219 | 28.93965 | 15788 ft | 395 kts | 185° |
| 2026-05-06 14:11 | 41.12453 | 28.93685 | 16756 ft | 401 kts | 185° |
| 2026-05-06 14:11 | 41.09646 | 28.93415 | 17690 ft | 407 kts | 185° |
| 2026-05-06 14:11 | 41.06796 | 28.93148 | 18597 ft | 413 kts | 185° |
| 2026-05-06 14:12 | 41.03905 | 28.92880 | 19491 ft | 419 kts | 185° |
| 2026-05-06 14:12 | 41.01019 | 28.92605 | 20328 ft | 424 kts | 186° |
| 2026-05-06 14:12 | 40.98057 | 28.92249 | 21135 ft | 430 kts | 187° |
| 2026-05-06 14:12 | 40.95061 | 28.91852 | 21928 ft | 436 kts | 187° |
| 2026-05-06 14:13 | 40.92022 | 28.91453 | 22704 ft | 441 kts | 187° |
| 2026-05-06 14:13 | 40.88946 | 28.91062 | 23436 ft | 446 kts | 187° |
| 2026-05-06 14:13 | 40.85841 | 28.90797 | 24140 ft | 451 kts | 181° |
| 2026-05-06 14:13 | 40.82684 | 28.90962 | 24886 ft | 455 kts | 176° |
| 2026-05-06 14:14 | 40.79533 | 28.91326 | 25788 ft | 453 kts | 176° |
| 2026-05-06 14:14 | 40.76398 | 28.91703 | 26713 ft | 450 kts | 176° |
| 2026-05-06 14:14 | 40.73287 | 28.92024 | 27625 ft | 448 kts | 178° |
| 2026-05-06 14:14 | 40.70179 | 28.92292 | 28446 ft | 447 kts | 178° |
| 2026-05-06 14:15 | 40.67056 | 28.92537 | 28995 ft | 451 kts | 179° |
| 2026-05-06 14:15 | 40.63939 | 28.93012 | 29045 ft | 454 kts | 166° |
| 2026-05-06 14:15 | 40.61055 | 28.94699 | 29081 ft | 455 kts | 146° |
| 2026-05-06 14:15 | 40.58711 | 28.97470 | 29083 ft | 454 kts | 127° |
| 2026-05-06 14:16 | 40.57086 | 29.00994 | 29077 ft | 449 kts | 110° |
| 2026-05-06 14:16 | 40.56207 | 29.04845 | 29079 ft | 444 kts | 96° |
| 2026-05-06 14:16 | 40.56121 | 29.08855 | 29069 ft | 436 kts | 82° |
| 2026-05-06 14:16 | 40.56217 | 29.10196 | 29079 ft | 436 kts | 81° |
| 2026-05-06 14:17 | 40.56818 | 29.17204 | 29074 ft | 438 kts | 80° |
| 2026-05-06 14:17 | 40.57468 | 29.25195 | 29064 ft | 438 kts | 81° |
| 2026-05-06 14:18 | 40.58041 | 29.33178 | 29058 ft | 438 kts | 82° |
| 2026-05-06 14:18 | 40.58594 | 29.41149 | 29068 ft | 438 kts | 82° |
| 2026-05-06 14:19 | 40.59254 | 29.49054 | 29073 ft | 437 kts | 79° |
| 2026-05-06 14:19 | 40.60029 | 29.57000 | 29069 ft | 437 kts | 79° |
| 2026-05-06 14:20 | 40.60775 | 29.64953 | 29070 ft | 438 kts | 80° |
| 2026-05-06 14:20 | 40.61497 | 29.72888 | 29058 ft | 437 kts | 80° |
| 2026-05-06 14:21 | 40.62221 | 29.80837 | 29069 ft | 437 kts | 80° |
| 2026-05-06 14:21 | 40.62938 | 29.88784 | 29074 ft | 437 kts | 80° |
| 2026-05-06 14:22 | 40.63648 | 29.96733 | 29075 ft | 437 kts | 80° |
| 2026-05-06 14:22 | 40.64352 | 30.04690 | 29073 ft | 437 kts | 80° |
| 2026-05-06 14:23 | 40.65052 | 30.12622 | 29075 ft | 436 kts | 80° |
| 2026-05-06 14:23 | 40.65741 | 30.20515 | 29079 ft | 437 kts | 80° |
| 2026-05-06 14:24 | 40.66430 | 30.28461 | 29077 ft | 436 kts | 80° |
| 2026-05-06 14:24 | 40.66274 | 30.36471 | 29085 ft | 441 kts | 94° |
| 2026-05-06 14:25 | 40.65441 | 30.44477 | 29075 ft | 441 kts | 95° |
| 2026-05-06 14:25 | 40.64686 | 30.52502 | 29078 ft | 441 kts | 94° |
| 2026-05-06 14:26 | 40.64005 | 30.60531 | 29070 ft | 441 kts | 93° |
| 2026-05-06 14:26 | 40.63320 | 30.68555 | 29077 ft | 441 kts | 94° |
| 2026-05-06 14:27 | 40.62058 | 30.76490 | 29085 ft | 444 kts | 103° |
| 2026-05-06 14:27 | 40.60360 | 30.84317 | 29086 ft | 445 kts | 103° |
| 2026-05-06 14:28 | 40.58671 | 30.92151 | 29079 ft | 445 kts | 103° |
| 2026-05-06 14:28 | 40.57007 | 30.99987 | 29085 ft | 445 kts | 103° |
| 2026-05-06 14:29 | 40.55351 | 31.07793 | 29089 ft | 446 kts | 103° |
| 2026-05-06 14:29 | 40.53679 | 31.15643 | 29081 ft | 446 kts | 103° |
| 2026-05-06 14:30 | 40.51995 | 31.23510 | 29087 ft | 447 kts | 103° |
| 2026-05-06 14:30 | 40.50289 | 31.31386 | 29087 ft | 448 kts | 103° |
| 2026-05-06 14:31 | 40.48574 | 31.39288 | 29077 ft | 450 kts | 103° |
| 2026-05-06 14:31 | 40.46855 | 31.47187 | 29083 ft | 450 kts | 103° |
| 2026-05-06 14:32 | 40.45126 | 31.55102 | 29074 ft | 449 kts | 103° |
| 2026-05-06 14:32 | 40.43422 | 31.62863 | 28950 ft | 434 kts | 102° |
| 2026-05-06 14:33 | 40.42594 | 31.66632 | 28780 ft | 426 kts | 102° |
| 2026-05-06 14:33 | 40.41779 | 31.70344 | 28497 ft | 421 kts | 102° |
| 2026-05-06 14:33 | 40.40969 | 31.74033 | 28137 ft | 420 kts | 102° |
| 2026-05-06 14:33 | 40.40160 | 31.77708 | 27752 ft | 419 kts | 102° |
| 2026-05-06 14:34 | 40.39353 | 31.81369 | 27403 ft | 417 kts | 102° |
| 2026-05-06 14:34 | 40.38548 | 31.85013 | 27089 ft | 414 kts | 102° |
| 2026-05-06 14:34 | 40.37748 | 31.88625 | 26788 ft | 411 kts | 102° |
| 2026-05-06 14:34 | 40.36952 | 31.92212 | 26486 ft | 408 kts | 102° |
| 2026-05-06 14:35 | 40.36158 | 31.95781 | 26178 ft | 406 kts | 102° |
| 2026-05-06 14:35 | 40.35363 | 31.99329 | 25848 ft | 404 kts | 102° |
| 2026-05-06 14:35 | 40.34582 | 32.02807 | 25534 ft | 402 kts | 103° |
| 2026-05-06 14:35 | 40.33792 | 32.06317 | 25247 ft | 399 kts | 102° |
| 2026-05-06 14:36 | 40.33009 | 32.09790 | 24957 ft | 396 kts | 102° |
| 2026-05-06 14:36 | 40.32234 | 32.13238 | 24638 ft | 394 kts | 102° |
| 2026-05-06 14:36 | 40.31461 | 32.16678 | 24355 ft | 391 kts | 102° |
| 2026-05-06 14:36 | 40.30885 | 32.20117 | 23983 ft | 382 kts | 89° |
| 2026-05-06 14:37 | 40.30993 | 32.23548 | 23630 ft | 373 kts | 75° |
| 2026-05-06 14:37 | 40.31666 | 32.26775 | 23347 ft | 362 kts | 62° |
| 2026-05-06 14:37 | 40.32685 | 32.29772 | 23059 ft | 359 kts | 60° |
| 2026-05-06 14:37 | 40.33729 | 32.32740 | 22747 ft | 358 kts | 60° |
| 2026-05-06 14:38 | 40.34751 | 32.35705 | 22466 ft | 357 kts | 62° |
| 2026-05-06 14:38 | 40.35753 | 32.38676 | 22186 ft | 355 kts | 62° |
| 2026-05-06 14:38 | 40.36716 | 32.41597 | 21905 ft | 351 kts | 65° |
| 2026-05-06 14:38 | 40.37174 | 32.44765 | 21434 ft | 362 kts | 89° |
| 2026-05-06 14:39 | 40.36660 | 32.48018 | 21093 ft | 368 kts | 110° |
| 2026-05-06 14:39 | 40.35482 | 32.50654 | 20874 ft | 367 kts | 124° |
| 2026-05-06 14:39 | 40.33957 | 32.53320 | 20621 ft | 364 kts | 125° |
| 2026-05-06 14:39 | 40.32446 | 32.55980 | 20344 ft | 363 kts | 124° |
| 2026-05-06 14:40 | 40.30960 | 32.58645 | 20075 ft | 361 kts | 124° |
| 2026-05-06 14:40 | 40.29494 | 32.61298 | 19833 ft | 359 kts | 124° |
| 2026-05-06 14:40 | 40.28035 | 32.63944 | 19583 ft | 356 kts | 124° |
| 2026-05-06 14:40 | 40.26617 | 32.66516 | 19356 ft | 339 kts | 124° |
| 2026-05-06 14:41 | 40.25273 | 32.68953 | 19162 ft | 324 kts | 124° |
| 2026-05-06 14:41 | 40.23966 | 32.71321 | 19072 ft | 317 kts | 124° |
| 2026-05-06 14:41 | 40.22691 | 32.73628 | 18946 ft | 309 kts | 124° |
| 2026-05-06 14:41 | 40.21447 | 32.75877 | 18779 ft | 302 kts | 124° |
| 2026-05-06 14:42 | 40.20246 | 32.78106 | 18463 ft | 295 kts | 117° |
| 2026-05-06 14:42 | 40.19624 | 32.80625 | 17976 ft | 292 kts | 89° |
| 2026-05-06 14:42 | 40.19919 | 32.83165 | 17604 ft | 285 kts | 65° |
| 2026-05-06 14:42 | 40.20903 | 32.85370 | 17274 ft | 279 kts | 47° |
| 2026-05-06 14:43 | 40.22354 | 32.87006 | 16915 ft | 275 kts | 34° |
| 2026-05-06 14:43 | 40.23917 | 32.88455 | 16563 ft | 275 kts | 34° |
| 2026-05-06 14:43 | 40.25476 | 32.89907 | 16226 ft | 274 kts | 34° |
| 2026-05-06 14:43 | 40.27026 | 32.91355 | 15899 ft | 273 kts | 34° |
| 2026-05-06 14:44 | 40.28564 | 32.92808 | 15586 ft | 272 kts | 34° |
| 2026-05-06 14:44 | 40.30098 | 32.94266 | 15253 ft | 271 kts | 34° |
| 2026-05-06 14:44 | 40.31621 | 32.95718 | 14927 ft | 270 kts | 35° |
| 2026-05-06 14:45 | 40.34630 | 32.98592 | 14280 ft | 269 kts | 35° |
| 2026-05-06 14:45 | 40.36141 | 33.00036 | 13956 ft | 268 kts | 35° |
| 2026-05-06 14:45 | 40.37643 | 33.01473 | 13627 ft | 267 kts | 35° |
| 2026-05-06 14:45 | 40.39138 | 33.02910 | 13291 ft | 265 kts | 38° |
| 2026-05-06 14:46 | 40.40407 | 33.04642 | 12847 ft | 265 kts | 50° |
| 2026-05-06 14:46 | 40.41584 | 33.06518 | 12486 ft | 266 kts | 50° |
| 2026-05-06 14:46 | 40.42893 | 33.08201 | 12102 ft | 264 kts | 37° |
| 2026-05-06 14:46 | 40.44378 | 33.09630 | 11782 ft | 264 kts | 34° |
| 2026-05-06 14:47 | 40.45880 | 33.11003 | 11488 ft | 262 kts | 34° |
| 2026-05-06 14:47 | 40.47374 | 33.12359 | 11174 ft | 261 kts | 34° |
| 2026-05-06 14:47 | 40.48804 | 33.13800 | 10816 ft | 258 kts | 48° |
| 2026-05-06 14:47 | 40.49689 | 33.15840 | 10397 ft | 259 kts | 71° |
| 2026-05-06 14:48 | 40.50200 | 33.18107 | 10088 ft | 258 kts | 75° |
| 2026-05-06 14:48 | 40.50637 | 33.20393 | 9785 ft | 255 kts | 79° |
| 2026-05-06 14:48 | 40.50599 | 33.22695 | 9365 ft | 256 kts | 108° |
| 2026-05-06 14:48 | 40.49721 | 33.24695 | 9034 ft | 253 kts | 131° |
| 2026-05-06 14:49 | 40.48443 | 33.26243 | 8671 ft | 251 kts | 151° |
| 2026-05-06 14:49 | 40.46809 | 33.26857 | 8313 ft | 248 kts | 178° |
| 2026-05-06 14:49 | 40.45072 | 33.26709 | 8083 ft | 245 kts | 193° |
| 2026-05-06 14:49 | 40.43451 | 33.26017 | 8025 ft | 246 kts | 203° |
| 2026-05-06 14:50 | 40.41906 | 33.25120 | 8015 ft | 246 kts | 205° |
| 2026-05-06 14:50 | 40.40351 | 33.24183 | 8008 ft | 244 kts | 205° |
| 2026-05-06 14:50 | 40.38849 | 33.23273 | 7987 ft | 231 kts | 205° |
| 2026-05-06 14:50 | 40.37418 | 33.22403 | 7985 ft | 226 kts | 205° |
| 2026-05-06 14:51 | 40.36013 | 33.21493 | 7988 ft | 224 kts | 210° |
| 2026-05-06 14:51 | 40.34673 | 33.20458 | 7993 ft | 223 kts | 212° |
| 2026-05-06 14:51 | 40.33366 | 33.19324 | 7713 ft | 227 kts | 215° |
| 2026-05-06 14:51 | 40.32094 | 33.18130 | 7462 ft | 222 kts | 216° |
| 2026-05-06 14:52 | 40.30849 | 33.16938 | 7138 ft | 222 kts | 216° |
| 2026-05-06 14:52 | 40.29624 | 33.15759 | 6844 ft | 214 kts | 216° |
| 2026-05-06 14:52 | 40.28458 | 33.14639 | 6547 ft | 202 kts | 216° |
| 2026-05-06 14:52 | 40.27348 | 33.13573 | 6331 ft | 196 kts | 216° |
| 2026-05-06 14:53 | 40.26288 | 33.12556 | 6044 ft | 185 kts | 216° |
| 2026-05-06 14:53 | 40.25285 | 33.11593 | 5811 ft | 177 kts | 217° |
| 2026-05-06 14:53 | 40.24300 | 33.10648 | 5615 ft | 174 kts | 216° |
| 2026-05-06 14:53 | 40.23400 | 33.09786 | 5371 ft | 160 kts | 217° |
| 2026-05-06 14:54 | 40.22515 | 33.08936 | 5152 ft | 156 kts | 218° |
| 2026-05-06 14:54 | 40.21647 | 33.08106 | 4971 ft | 153 kts | 218° |
| 2026-05-06 14:54 | 40.20795 | 33.07289 | 4764 ft | 151 kts | 218° |
| 2026-05-06 14:54 | 40.19951 | 33.06480 | 4566 ft | 149 kts | 218° |
| 2026-05-06 14:55 | 40.19398 | 33.05952 | 4430 ft | 148 kts | 219° |
| 2026-05-06 14:55 | 40.18563 | 33.05151 | 4231 ft | 148 kts | 219° |
| 2026-05-06 14:55 | 40.17732 | 33.04356 | 4029 ft | 148 kts | 218° |
| 2026-05-06 14:55 | 40.16899 | 33.03557 | 3832 ft | 148 kts | 218° |
| 2026-05-06 14:56 | 40.16046 | 33.02787 | 3593 ft | 149 kts | 216° |
| 2026-05-06 14:56 | 40.15212 | 33.01997 | 3417 ft | 149 kts | 221° |
| 2026-05-06 14:56 | 40.14396 | 33.01174 | 3212 ft | 146 kts | 219° |
| 2026-05-06 14:56 | 40.13609 | 33.00418 | 3136 ft | 126 kts | 213° |
| 2026-05-06 14:57 | 40.13048 | 32.99884 | 3130 ft | 73 kts | 216° |
| 2026-05-06 14:57 | 40.12781 | 32.99629 | 3128 ft | 34 kts | 216° |
| 2026-05-06 14:57 | 40.12600 | 32.99456 | 3126 ft | 31 kts | 216° |
| 2026-05-06 14:57 | 40.12430 | 32.99297 | 3124 ft | 23 kts | 212° |
| 2026-05-06 14:58 | 40.12336 | 32.99238 | 3123 ft | 10 kts | 199° |
| 2026-05-06 14:58 | 40.12265 | 32.99214 | 3122 ft | 11 kts | 191° |
| 2026-05-06 14:58 | 40.12227 | 32.99207 | 3122 ft | 0 kts | 187° |
| 2026-05-06 14:59 | 40.12226 | 32.99207 | 3122 ft | 1 kts | 187° |
| 2026-05-06 14:59 | 40.12218 | 32.99206 | 3122 ft | 2 kts | 187° |
| 2026-05-06 14:59 | 40.12202 | 32.99203 | 3122 ft | 3 kts | 187° |
| 2026-05-06 15:00 | 40.12178 | 32.99199 | 3122 ft | 4 kts | 187° |
| 2026-05-06 15:00 | 40.12148 | 32.99195 | 3122 ft | 5 kts | 186° |
| 2026-05-06 15:00 | 40.12110 | 32.99189 | 3121 ft | 6 kts | 186° |
| 2026-05-06 15:00 | 40.12065 | 32.99183 | 3121 ft | 7 kts | 186° |
| 2026-05-06 15:01 | 40.12012 | 32.99173 | 3120 ft | 8 kts | 191° |
| 2026-05-06 15:01 | 40.11957 | 32.99143 | 3119 ft | 9 kts | 210° |
| 2026-05-06 15:01 | 40.11902 | 32.99094 | 3119 ft | 10 kts | 216° |
| 2026-05-06 15:01 | 40.11858 | 32.99054 | 3119 ft | 4 kts | 212° |
| 2026-05-06 15:02 | 40.11841 | 32.99045 | 3118 ft | 1 kts | 196° |
| 2026-05-06 15:02 | 40.11830 | 32.99044 | 3118 ft | 2 kts | 182° |
| 2026-05-06 15:02 | 40.11815 | 32.99050 | 3118 ft | 2 kts | 155° |
| 2026-05-06 15:02 | 40.11799 | 32.99066 | 3118 ft | 4 kts | 143° |
| 2026-05-06 15:03 | 40.11775 | 32.99089 | 3118 ft | 5 kts | 145° |
| 2026-05-06 15:03 | 40.11743 | 32.99111 | 3118 ft | 5 kts | 159° |
| 2026-05-06 15:03 | 40.11707 | 32.99113 | 3118 ft | 5 kts | 193° |
| 2026-05-06 15:03 | 40.11676 | 32.99088 | 3118 ft | 5 kts | 221° |
| 2026-05-06 15:04 | 40.11657 | 32.99061 | 3118 ft | 3 kts | 228° |
| 2026-05-06 15:04 | 40.11645 | 32.99052 | 3118 ft | 2 kts | 199° |
| 2026-05-06 15:04 | 40.11631 | 32.99053 | 3118 ft | 2 kts | 174° |
| 2026-05-06 15:04 | 40.11616 | 32.99059 | 3118 ft | 3 kts | 161° |
| 2026-05-06 15:05 | 40.11606 | 32.99064 | 3118 ft | 1 kts | 156° |
| 2026-05-06 15:05 | 40.11601 | 32.99068 | 3118 ft | 0 kts | 154° |
| 2026-05-06 15:05 | 40.11598 | 32.99069 | 3118 ft | 1 kts | 155° |
| 2026-05-06 15:05 | 40.11596 | 32.99071 | 3118 ft | 0 kts | 153° |
| 2026-05-06 15:06 | 40.11593 | 32.99074 | 3118 ft | 1 kts | 151° |
| 2026-05-06 15:06 | 40.11589 | 32.99076 | 3118 ft | 0 kts | 150° |
| 2026-05-06 15:06 | 40.11586 | 32.99078 | 3118 ft | 1 kts | 149° |
| 2026-05-06 15:06 | 40.11584 | 32.99080 | 3118 ft | 0 kts | 149° |
| 2026-05-06 15:07 | 40.11581 | 32.99082 | 3118 ft | 1 kts | 148° |
| 2026-05-06 15:07 | 40.11580 | 32.99084 | 3118 ft | 0 kts | 148° |
| 2026-05-06 15:07 | 40.11579 | 32.99084 | 3118 ft | 0 kts | 148° |